Time;durP1;ratioP1;P1;durP2;ratioP2;P2;SDS_P1;SDS_P2;PMS_P1;PMS_P2;Temp;Humidity;BMP_temperature;BMP_pressure;BME280_temperature;BME280_humidity;BME280_pressure;Samples;Min_cycle;Max_cycle;Signal;HPM_P1;HPM_P2
2022/03/22 00:00:10;;;;;;;;;;;6.60;79.00;;;;;;4917594;28;19934;-79
2022/03/22 00:02:40;;;;;;;;;;;6.60;79.20;;;;;;4934708;28;20448;-82
2022/03/22 00:05:07;;;;;;;;;;;6.60;79.00;;;;;;4944109;28;19926;-78
2022/03/22 00:07:33;;;;;;;;;;;6.50;78.70;;;;;;4944459;28;19935;-78
2022/03/22 00:10:02;;;;;;;;;;;6.50;78.90;;;;;;4938126;28;19934;-79
2022/03/22 00:12:29;;;;;;;;;;;6.50;79.30;;;;;;4941253;28;20375;-79
2022/03/22 00:14:58;;;;;;;;;;;6.50;79.00;;;;;;4929333;28;19935;-79
2022/03/22 00:17:25;;;;;;;;;;;6.40;78.90;;;;;;4938135;28;19927;-79
2022/03/22 00:19:52;;;;;;;;;;;6.40;79.10;;;;;;4943589;28;19933;-79
2022/03/22 00:22:19;;;;;;;;;;;6.40;79.20;;;;;;4942474;28;20040;-79
2022/03/22 00:24:46;;;;;;;;;;;6.30;79.40;;;;;;4954597;28;19926;-80
2022/03/22 00:27:14;;;;;;;;;;;6.30;79.50;;;;;;4939769;28;20006;-80
2022/03/22 00:29:41;;;;;;;;;;;6.30;79.40;;;;;;4939290;28;19931;-79
2022/03/22 00:32:08;;;;;;;;;;;6.30;79.10;;;;;;4936939;28;20891;-79
2022/03/22 00:34:44;;;;;;;;;;;6.30;79.40;;;;;;4946185;28;19931;-79
2022/03/22 00:37:12;;;;;;;;;;;6.30;79.50;;;;;;4947266;28;19962;-79
2022/03/22 00:39:39;;;;;;;;;;;6.20;79.30;;;;;;4929740;28;19941;-79
2022/03/22 00:42:06;;;;;;;;;;;6.20;79.50;;;;;;4924646;28;20425;-79
2022/03/22 00:44:35;;;;;;;;;;;6.20;79.30;;;;;;4945294;28;19926;-78
2022/03/22 00:47:03;;;;;;;;;;;6.10;79.30;;;;;;4936724;28;20026;-79
2022/03/22 00:49:30;;;;;;;;;;;6.10;79.40;;;;;;4939932;28;19954;-79
2022/03/22 00:51:59;;;;;;;;;;;6.10;79.40;;;;;;4937743;28;19926;-79
2022/03/22 00:54:26;;;;;;;;;;;6.10;79.40;;;;;;4934792;28;20060;-81
2022/03/22 00:56:54;;;;;;;;;;;6.00;79.10;;;;;;4953598;28;19926;-82
2022/03/22 01:02:07;;;;;;;;;;;6.00;79.40;;;;;;4951260;28;19933;-79
2022/03/22 01:04:35;;;;;;;;;;;6.00;79.70;;;;;;4941195;28;19938;-81
2022/03/22 01:07:02;;;;;;;;;;;5.90;79.40;;;;;;4936484;28;20392;-81
2022/03/22 01:09:29;;;;;;;;;;;5.90;79.50;;;;;;4939001;28;19945;-80
2022/03/22 01:11:57;;;;;;;;;;;5.90;79.40;;;;;;4939656;28;19938;-79
2022/03/22 01:14:27;;;;;;;;;;;5.90;79.50;;;;;;4949703;28;19938;-79
2022/03/22 01:16:56;;;;;;;;;;;5.80;79.30;;;;;;4932241;28;19937;-79
2022/03/22 01:19:24;;;;;;;;;;;5.80;79.20;;;;;;4941617;28;19934;-78
2022/03/22 01:21:51;;;;;;;;;;;5.80;79.50;;;;;;4933552;28;20017;-81
2022/03/22 01:24:20;;;;;;;;;;;5.70;79.50;;;;;;4943697;28;20023;-78
2022/03/22 01:26:47;;;;;;;;;;;5.70;79.40;;;;;;4939181;28;19941;-79
2022/03/22 01:29:14;;;;;;;;;;;5.70;79.50;;;;;;4929171;28;20429;-79
2022/03/22 01:31:40;;;;;;;;;;;5.70;79.50;;;;;;4946689;28;19934;-78
2022/03/22 01:34:08;;;;;;;;;;;5.60;79.50;;;;;;4951673;28;19961;-78
2022/03/22 01:36:36;;;;;;;;;;;5.60;79.50;;;;;;4949286;28;19926;-79
2022/03/22 01:39:03;;;;;;;;;;;5.60;79.60;;;;;;4942398;28;20385;-78
2022/03/22 01:41:30;;;;;;;;;;;5.60;79.70;;;;;;4941771;28;19933;-81
2022/03/22 01:43:58;;;;;;;;;;;5.60;79.70;;;;;;4939570;28;20404;-81
2022/03/22 01:46:27;;;;;;;;;;;5.60;79.80;;;;;;4944437;28;19945;-82
2022/03/22 01:48:54;;;;;;;;;;;5.50;79.80;;;;;;4938832;28;19927;-79
2022/03/22 01:51:22;;;;;;;;;;;5.50;79.90;;;;;;4938105;28;19926;-78
2022/03/22 01:53:51;;;;;;;;;;;5.50;79.90;;;;;;4919621;28;19973;-79
2022/03/22 01:56:18;;;;;;;;;;;5.50;80.00;;;;;;4927604;28;20021;-79
2022/03/22 01:58:45;;;;;;;;;;;5.50;80.10;;;;;;4934532;28;19926;-82
2022/03/22 02:06:42;;;;;;;;;;;5.40;80.10;;;;;;4944534;28;19933;-80
2022/03/22 02:09:11;;;;;;;;;;;5.40;80.00;;;;;;4946285;28;19981;-80
2022/03/22 02:11:37;;;;;;;;;;;5.30;80.00;;;;;;4932742;29;19927;-80
2022/03/22 02:14:05;;;;;;;;;;;5.40;80.20;;;;;;4943540;28;19942;-82
2022/03/22 02:16:32;;;;;;;;;;;5.30;80.10;;;;;;4920973;28;19934;-80
2022/03/22 02:19:00;;;;;;;;;;;5.30;80.20;;;;;;4937233;28;20016;-81
2022/03/22 02:21:28;;;;;;;;;;;5.30;80.20;;;;;;4924280;28;19946;-79
2022/03/22 02:23:57;;;;;;;;;;;5.30;80.30;;;;;;4934325;28;19933;-79
2022/03/22 02:26:25;;;;;;;;;;;5.30;80.30;;;;;;4939193;28;20504;-79
2022/03/22 02:28:53;;;;;;;;;;;5.20;80.30;;;;;;4937812;28;20013;-79
2022/03/22 02:31:20;;;;;;;;;;;5.20;80.30;;;;;;4937907;28;19933;-79
2022/03/22 02:33:47;;;;;;;;;;;5.20;80.40;;;;;;4933788;28;19985;-81
2022/03/22 02:36:14;;;;;;;;;;;5.20;80.40;;;;;;4934985;28;19931;-79
2022/03/22 02:38:41;;;;;;;;;;;5.10;80.50;;;;;;4938407;28;20393;-79
2022/03/22 02:41:14;;;;;;;;;;;5.10;80.50;;;;;;4936377;28;19933;-79
2022/03/22 02:43:41;;;;;;;;;;;5.10;80.60;;;;;;4942752;28;19926;-80
2022/03/22 02:46:08;;;;;;;;;;;5.10;80.60;;;;;;4951353;28;20367;-79
2022/03/22 02:48:35;;;;;;;;;;;5.10;80.70;;;;;;4923214;29;20006;-80
2022/03/22 02:51:04;;;;;;;;;;;5.10;80.80;;;;;;4944038;28;20029;-79
2022/03/22 02:53:31;;;;;;;;;;;5.00;80.70;;;;;;4940009;28;19981;-79
2022/03/22 02:55:58;;;;;;;;;;;5.00;80.70;;;;;;4930640;28;19931;-79
2022/03/22 02:58:26;;;;;;;;;;;5.00;80.60;;;;;;4944909;28;19940;-79
2022/03/22 03:00:53;;;;;;;;;;;5.00;80.70;;;;;;4950022;28;20103;-79
2022/03/22 03:03:22;;;;;;;;;;;5.00;80.70;;;;;;4941588;28;19927;-81
2022/03/22 03:05:50;;;;;;;;;;;4.90;80.60;;;;;;4942045;28;19927;-79
2022/03/22 03:08:17;;;;;;;;;;;4.90;80.60;;;;;;4942710;28;19930;-79
2022/03/22 03:10:45;;;;;;;;;;;4.90;80.70;;;;;;4954017;28;20297;-79
2022/03/22 03:13:13;;;;;;;;;;;4.90;80.80;;;;;;4948682;28;20319;-79
2022/03/22 03:15:40;;;;;;;;;;;4.90;80.80;;;;;;4937578;28;19941;-81
2022/03/22 03:18:08;;;;;;;;;;;4.80;80.80;;;;;;4939479;28;19934;-81
2022/03/22 03:20:36;;;;;;;;;;;4.80;80.90;;;;;;4935668;28;19933;-79
2022/03/22 03:23:03;;;;;;;;;;;4.80;81.20;;;;;;4926380;28;20542;-79
2022/03/22 03:25:30;;;;;;;;;;;4.70;81.10;;;;;;4946085;28;19944;-79
2022/03/22 03:27:57;;;;;;;;;;;4.70;81.00;;;;;;4938881;28;19938;-81
2022/03/22 03:30:24;;;;;;;;;;;4.70;81.00;;;;;;4936709;28;20668;-79
2022/03/22 03:32:52;;;;;;;;;;;4.60;81.00;;;;;;4936539;28;19962;-82
2022/03/22 03:35:19;;;;;;;;;;;4.60;81.20;;;;;;4938406;28;19927;-82
2022/03/22 03:37:47;;;;;;;;;;;4.50;81.30;;;;;;4942927;28;20309;-81
2022/03/22 03:40:14;;;;;;;;;;;4.60;81.40;;;;;;4938964;28;19982;-80
2022/03/22 03:42:44;;;;;;;;;;;4.50;81.40;;;;;;4935200;28;19934;-79
2022/03/22 03:47:57;;;;;;;;;;;4.50;81.30;;;;;;4940863;28;19927;-79
2022/03/22 03:50:24;;;;;;;;;;;4.50;81.40;;;;;;4941235;28;20033;-79
2022/03/22 03:52:51;;;;;;;;;;;4.50;81.40;;;;;;4945436;28;20009;-79
2022/03/22 03:55:19;;;;;;;;;;;4.50;81.40;;;;;;4948328;28;19933;-79
2022/03/22 03:57:46;;;;;;;;;;;4.50;81.40;;;;;;4945703;28;20381;-79
2022/03/22 04:00:15;;;;;;;;;;;4.50;81.30;;;;;;4949880;28;19926;-79
2022/03/22 04:02:42;;;;;;;;;;;4.50;81.40;;;;;;4942701;28;20576;-79
2022/03/22 04:05:11;;;;;;;;;;;4.50;81.40;;;;;;4917188;28;19977;-79
2022/03/22 04:07:38;;;;;;;;;;;4.50;81.40;;;;;;4931037;28;20749;-79
2022/03/22 04:10:06;;;;;;;;;;;4.40;81.40;;;;;;4938134;28;20286;-79
2022/03/22 04:12:34;;;;;;;;;;;4.40;81.30;;;;;;4928525;28;19981;-81
2022/03/22 04:15:00;;;;;;;;;;;4.40;81.30;;;;;;4936142;28;20025;-79
2022/03/22 04:17:27;;;;;;;;;;;4.40;81.40;;;;;;4947746;28;19989;-82
2022/03/22 04:19:54;;;;;;;;;;;4.40;81.30;;;;;;4941749;28;20021;-79
2022/03/22 04:22:23;;;;;;;;;;;4.40;81.40;;;;;;4927571;28;19934;-81
2022/03/22 04:24:50;;;;;;;;;;;4.40;81.30;;;;;;4945851;28;19934;-79
2022/03/22 04:33:00;;;;;;;;;;;4.30;81.40;;;;;;4885578;29;20385;-79
2022/03/22 04:35:28;;;;;;;;;;;4.30;81.60;;;;;;4926577;28;20409;-79
2022/03/22 04:37:57;;;;;;;;;;;4.30;81.40;;;;;;4948275;28;19951;-79
2022/03/22 04:40:25;;;;;;;;;;;4.30;81.60;;;;;;4943642;28;19937;-81
2022/03/22 04:42:52;;;;;;;;;;;4.30;81.60;;;;;;4947064;28;20120;-79
2022/03/22 04:45:19;;;;;;;;;;;4.30;81.70;;;;;;4943767;28;19962;-79
2022/03/22 04:47:46;;;;;;;;;;;4.20;81.60;;;;;;4928769;28;20315;-79
2022/03/22 04:50:14;;;;;;;;;;;4.20;81.60;;;;;;4947541;28;20013;-79
2022/03/22 04:58:10;;;;;;;;;;;4.20;81.80;;;;;;4948044;28;20343;-79
2022/03/22 05:00:37;;;;;;;;;;;4.20;81.80;;;;;;4949429;28;20031;-80
2022/03/22 05:03:05;;;;;;;;;;;4.20;81.60;;;;;;4933172;28;19934;-80
2022/03/22 05:08:16;;;;;;;;;;;4.20;81.70;;;;;;4953357;28;19927;-80
2022/03/22 05:10:44;;;;;;;;;;;4.20;81.60;;;;;;4950792;28;20290;-82
2022/03/22 05:13:11;;;;;;;;;;;4.10;81.50;;;;;;4948244;28;19937;-81
2022/03/22 05:15:39;;;;;;;;;;;4.10;81.60;;;;;;4949919;28;20197;-80
2022/03/22 05:18:06;;;;;;;;;;;4.00;81.50;;;;;;4945048;28;19927;-81
2022/03/22 05:20:33;;;;;;;;;;;4.00;81.50;;;;;;4953089;28;19930;-80
2022/03/22 05:23:00;;;;;;;;;;;4.00;81.50;;;;;;4953352;28;20392;-80
2022/03/22 05:25:30;;;;;;;;;;;4.00;81.50;;;;;;4953314;28;19941;-79
2022/03/22 05:27:59;;;;;;;;;;;4.10;81.90;;;;;;4948860;28;19927;-81
2022/03/22 05:30:26;;;;;;;;;;;4.10;81.60;;;;;;4951239;28;19989;-80
2022/03/22 05:32:53;;;;;;;;;;;4.00;81.50;;;;;;4944994;28;19926;-80
2022/03/22 05:35:20;;;;;;;;;;;4.10;81.70;;;;;;4947787;28;19985;-79
2022/03/22 05:37:47;;;;;;;;;;;4.20;81.60;;;;;;4930975;28;20316;-79
2022/03/22 05:40:16;;;;;;;;;;;4.20;81.40;;;;;;4936817;28;20405;-79
2022/03/22 05:42:43;;;;;;;;;;;4.20;81.30;;;;;;4918241;28;19937;-80
2022/03/22 05:45:12;;;;;;;;;;;4.10;81.30;;;;;;4945343;28;19954;-79
2022/03/22 05:47:39;;;;;;;;;;;4.10;81.50;;;;;;4955190;28;19931;-80
2022/03/22 05:50:06;;;;;;;;;;;4.10;81.50;;;;;;4934437;28;20022;-79
2022/03/22 05:52:33;;;;;;;;;;;4.00;81.50;;;;;;4941201;28;20001;-79
2022/03/22 05:55:00;;;;;;;;;;;4.00;81.50;;;;;;4939491;28;19938;-80
2022/03/22 05:57:27;;;;;;;;;;;4.10;81.60;;;;;;4945402;28;20085;-79
2022/03/22 05:59:54;;;;;;;;;;;4.10;81.60;;;;;;4946926;28;20016;-79
2022/03/22 06:02:22;;;;;;;;;;;4.10;81.70;;;;;;4939572;28;19955;-80
2022/03/22 06:04:49;;;;;;;;;;;4.10;81.60;;;;;;4944255;28;20448;-80
2022/03/22 06:07:20;;;;;;;;;;;4.00;81.70;;;;;;4943107;28;19926;-80
2022/03/22 06:09:47;;;;;;;;;;;4.00;81.70;;;;;;4946105;28;20554;-79
2022/03/22 06:12:16;;;;;;;;;;;4.10;81.80;;;;;;4938286;28;19934;-80
2022/03/22 06:14:43;;;;;;;;;;;4.00;81.50;;;;;;4941149;28;19927;-79
2022/03/22 06:17:09;;;;;;;;;;;4.00;81.50;;;;;;4937888;28;19982;-78
2022/03/22 06:19:38;;;;;;;;;;;4.00;81.70;;;;;;4930914;28;19961;-79
2022/03/22 06:22:05;;;;;;;;;;;3.90;81.60;;;;;;4938135;28;19965;-79
2022/03/22 06:24:32;;;;;;;;;;;3.90;82.10;;;;;;4927774;29;19934;-79
2022/03/22 06:26:59;;;;;;;;;;;3.90;82.20;;;;;;4952929;28;19990;-79
2022/03/22 06:29:26;;;;;;;;;;;3.90;82.40;;;;;;4941856;28;19935;-79
2022/03/22 06:31:53;;;;;;;;;;;3.90;82.30;;;;;;4955260;28;19930;-79
2022/03/22 06:34:20;;;;;;;;;;;3.90;82.40;;;;;;4953766;28;20017;-79
2022/03/22 06:36:48;;;;;;;;;;;3.90;82.50;;;;;;4933826;28;20680;-80
2022/03/22 06:39:15;;;;;;;;;;;3.90;82.40;;;;;;4951036;28;19930;-79
2022/03/22 06:41:42;;;;;;;;;;;3.90;82.60;;;;;;4947603;28;19930;-78
2022/03/22 06:44:10;;;;;;;;;;;3.80;82.50;;;;;;4949584;28;20334;-79
2022/03/22 06:46:37;;;;;;;;;;;3.80;82.90;;;;;;4948023;28;19939;-79
2022/03/22 06:49:05;;;;;;;;;;;3.90;83.00;;;;;;4950227;28;19973;-79
2022/03/22 06:51:32;;;;;;;;;;;3.80;83.00;;;;;;4954625;28;20304;-79
2022/03/22 06:54:00;;;;;;;;;;;3.80;83.00;;;;;;4944641;28;20547;-79
2022/03/22 06:56:27;;;;;;;;;;;3.80;83.00;;;;;;4934607;28;19927;-79
2022/03/22 06:58:54;;;;;;;;;;;3.80;83.00;;;;;;4960794;28;19934;-79
2022/03/22 07:01:21;;;;;;;;;;;3.70;83.00;;;;;;4947006;28;20344;-79
2022/03/22 07:03:48;;;;;;;;;;;3.70;83.20;;;;;;5035196;23;20092;-75
2022/03/22 07:06:15;;;;;;;;;;;3.70;83.10;;;;;;4997260;28;20292;-75
2022/03/22 07:08:42;;;;;;;;;;;3.70;83.10;;;;;;5007574;28;20446;-75
2022/03/22 07:13:55;;;;;;;;;;;3.70;83.10;;;;;;5016162;28;20052;-76
2022/03/22 07:16:27;;;;;;;;;;;3.70;83.10;;;;;;4990424;28;19925;-76
2022/03/22 07:18:54;;;;;;;;;;;3.70;83.10;;;;;;5013009;28;19926;-75
2022/03/22 07:21:22;;;;;;;;;;;3.60;83.00;;;;;;4991085;28;19952;-76
2022/03/22 07:23:48;;;;;;;;;;;3.60;83.10;;;;;;5009524;28;19925;-76
2022/03/22 07:26:17;;;;;;;;;;;3.60;83.10;;;;;;5011259;28;19925;-76
2022/03/22 07:28:44;;;;;;;;;;;3.60;83.20;;;;;;5011543;28;19925;-76
2022/03/22 07:31:11;;;;;;;;;;;3.60;83.20;;;;;;5003899;28;19930;-76
2022/03/22 07:33:38;;;;;;;;;;;3.60;83.30;;;;;;5012049;28;20311;-75
2022/03/22 07:36:05;;;;;;;;;;;3.60;83.30;;;;;;5009025;28;20314;-76
2022/03/22 07:38:32;;;;;;;;;;;3.60;83.30;;;;;;5007564;28;20387;-76
2022/03/22 07:40:59;;;;;;;;;;;3.60;83.40;;;;;;5013039;28;19976;-75
2022/03/22 07:43:28;;;;;;;;;;;3.60;83.40;;;;;;5008892;28;19926;-77
2022/03/22 07:45:55;;;;;;;;;;;3.60;83.50;;;;;;5012302;28;19929;-75
2022/03/22 07:48:22;;;;;;;;;;;3.60;83.50;;;;;;4991203;28;19926;-76
2022/03/22 07:53:33;;;;;;;;;;;3.50;83.40;;;;;;5007342;28;19921;-76
2022/03/22 07:56:00;;;;;;;;;;;3.60;83.60;;;;;;4988258;28;20016;-76
2022/03/22 07:58:28;;;;;;;;;;;3.60;83.60;;;;;;4992490;28;19931;-75
2022/03/22 08:00:56;;;;;;;;;;;3.60;83.50;;;;;;5008907;28;19929;-75
2022/03/22 08:03:23;;;;;;;;;;;3.60;83.60;;;;;;5004146;28;19969;-76
2022/03/22 08:05:50;;;;;;;;;;;3.60;83.60;;;;;;5011578;28;19926;-76
2022/03/22 08:08:17;;;;;;;;;;;3.60;83.60;;;;;;5003541;28;20556;-76
2022/03/22 08:10:45;;;;;;;;;;;3.60;83.70;;;;;;5007069;28;19952;-76
2022/03/22 08:13:12;;;;;;;;;;;3.60;83.80;;;;;;5007769;28;20309;-75
2022/03/22 08:15:41;;;;;;;;;;;3.60;83.90;;;;;;4991721;28;19931;-76
2022/03/22 08:18:10;;;;;;;;;;;3.60;84.00;;;;;;5009196;28;19929;-75
2022/03/22 08:20:37;;;;;;;;;;;3.60;83.90;;;;;;4991560;28;19925;-75
2022/03/22 08:23:06;;;;;;;;;;;3.60;84.00;;;;;;5008529;28;20023;-76
2022/03/22 08:25:34;;;;;;;;;;;3.60;84.00;;;;;;4989895;28;19933;-76
2022/03/22 08:28:02;;;;;;;;;;;3.60;84.00;;;;;;5008998;28;19926;-76
2022/03/22 08:30:30;;;;;;;;;;;3.60;84.20;;;;;;5013084;28;20016;-75
2022/03/22 08:32:59;;;;;;;;;;;3.70;84.20;;;;;;5013622;28;19926;-76
2022/03/22 08:35:26;;;;;;;;;;;3.70;84.20;;;;;;5000136;28;19929;-75
2022/03/22 08:37:53;;;;;;;;;;;3.70;84.50;;;;;;4994311;28;19929;-76
2022/03/22 08:40:21;;;;;;;;;;;3.70;84.60;;;;;;4993719;28;19929;-75
2022/03/22 08:42:49;;;;;;;;;;;3.70;84.60;;;;;;5011224;28;19941;-76
2022/03/22 08:45:16;;;;;;;;;;;3.70;84.70;;;;;;4989604;28;20307;-75
2022/03/22 08:47:45;;;;;;;;;;;3.70;84.70;;;;;;5006477;28;19926;-76
2022/03/22 08:50:14;;;;;;;;;;;3.70;84.70;;;;;;5013737;28;19925;-75
2022/03/22 08:52:42;;;;;;;;;;;3.70;84.80;;;;;;5002975;28;19933;-75
2022/03/22 08:55:11;;;;;;;;;;;3.70;84.90;;;;;;5005241;28;19926;-75
2022/03/22 08:57:39;;;;;;;;;;;3.70;85.10;;;;;;5009618;28;19960;-76
2022/03/22 09:00:09;;;;;;;;;;;3.70;85.10;;;;;;5018617;28;19980;-74
2022/03/22 09:02:36;;;;;;;;;;;3.70;85.40;;;;;;5013588;28;19929;-75
2022/03/22 09:07:48;;;;;;;;;;;3.80;85.40;;;;;;5014707;28;20036;-75
2022/03/22 09:10:18;;;;;;;;;;;3.80;85.40;;;;;;5004189;28;20437;-77
2022/03/22 09:12:45;;;;;;;;;;;3.80;85.40;;;;;;5012001;28;20311;-75
2022/03/22 09:15:13;;;;;;;;;;;3.90;85.20;;;;;;5016739;28;19930;-75
2022/03/22 09:17:40;;;;;;;;;;;3.90;85.30;;;;;;5016082;28;19925;-76
2022/03/22 09:20:07;;;;;;;;;;;3.90;85.40;;;;;;5003934;28;19930;-75
2022/03/22 09:22:34;;;;;;;;;;;3.90;85.60;;;;;;5029051;28;20000;-76
2022/03/22 09:25:03;;;;;;;;;;;3.90;85.70;;;;;;5033454;28;19925;-75
2022/03/22 09:27:30;;;;;;;;;;;3.90;85.80;;;;;;5017442;28;20284;-76
2022/03/22 09:29:57;;;;;;;;;;;3.90;85.80;;;;;;5006756;28;19932;-76
2022/03/22 09:32:24;;;;;;;;;;;3.90;85.90;;;;;;5009298;28;19925;-75
2022/03/22 09:34:51;;;;;;;;;;;3.90;86.10;;;;;;4991437;28;20391;-76
2022/03/22 09:37:18;;;;;;;;;;;4.00;86.10;;;;;;4991172;28;19933;-75
2022/03/22 09:39:45;;;;;;;;;;;4.10;86.00;;;;;;5009142;28;19926;-75
2022/03/22 09:42:14;;;;;;;;;;;4.10;86.00;;;;;;4993799;28;19964;-75
2022/03/22 09:44:41;;;;;;;;;;;4.10;86.10;;;;;;5004817;28;19932;-75
2022/03/22 09:47:08;;;;;;;;;;;4.10;86.20;;;;;;5016885;28;19925;-75
2022/03/22 09:49:37;;;;;;;;;;;4.10;86.30;;;;;;5003947;28;19926;-75
2022/03/22 09:52:05;;;;;;;;;;;4.10;86.30;;;;;;5014056;28;19933;-75
2022/03/22 09:54:32;;;;;;;;;;;4.10;86.30;;;;;;4993730;28;19936;-74
2022/03/22 09:56:59;;;;;;;;;;;4.10;86.40;;;;;;4991884;28;19929;-74
2022/03/22 09:59:27;;;;;;;;;;;4.20;86.40;;;;;;5017559;28;19932;-75
2022/03/22 10:01:54;;;;;;;;;;;4.30;86.40;;;;;;5016075;28;19925;-75
2022/03/22 10:04:21;;;;;;;;;;;4.30;86.20;;;;;;4992272;28;20315;-75
2022/03/22 10:06:52;;;;;;;;;;;4.40;86.10;;;;;;5010623;28;19926;-75
2022/03/22 10:09:27;;;;;;;;;;;4.40;86.20;;;;;;5014454;28;19926;-74
2022/03/22 10:11:54;;;;;;;;;;;4.40;86.30;;;;;;5009907;28;19963;-74
2022/03/22 10:14:21;;;;;;;;;;;4.40;86.50;;;;;;5014059;28;19976;-75
2022/03/22 10:16:50;;;;;;;;;;;4.40;86.80;;;;;;5018619;28;19925;-75
2022/03/22 10:19:17;;;;;;;;;;;4.40;86.90;;;;;;5009363;28;19940;-74
2022/03/22 10:21:44;;;;;;;;;;;4.40;87.00;;;;;;4994142;28;19930;-75
2022/03/22 10:24:13;;;;;;;;;;;4.40;87.30;;;;;;5010167;28;19925;-75
2022/03/22 10:26:44;;;;;;;;;;;4.40;87.20;;;;;;5003696;28;20543;-74
2022/03/22 10:29:12;;;;;;;;;;;4.50;87.30;;;;;;5012716;28;19925;-75
2022/03/22 10:31:40;;;;;;;;;;;4.60;87.40;;;;;;4992668;28;20346;-74
2022/03/22 10:34:08;;;;;;;;;;;4.60;87.20;;;;;;5007822;28;19929;-74
2022/03/22 10:36:36;;;;;;;;;;;4.60;87.50;;;;;;5000951;28;19930;-75
2022/03/22 10:39:04;;;;;;;;;;;4.70;87.90;;;;;;5008800;28;19949;-75
2022/03/22 10:41:32;;;;;;;;;;;4.80;87.50;;;;;;5011593;28;19929;-74
2022/03/22 10:44:03;;;;;;;;;;;4.70;87.70;;;;;;5009884;28;19981;-75
2022/03/22 10:46:30;;;;;;;;;;;4.80;88.10;;;;;;5008191;28;19926;-74
2022/03/22 10:49:02;;;;;;;;;;;4.80;88.20;;;;;;4986572;28;20008;-75
2022/03/22 10:51:34;;;;;;;;;;;4.80;88.10;;;;;;5003355;28;19933;-74
2022/03/22 10:54:01;;;;;;;;;;;4.90;88.30;;;;;;5010362;28;20346;-75
2022/03/22 10:56:28;;;;;;;;;;;4.90;88.40;;;;;;4993212;28;19933;-75
2022/03/22 10:58:55;;;;;;;;;;;4.90;88.60;;;;;;4992771;28;20328;-75
2022/03/22 11:01:22;;;;;;;;;;;5.00;89.10;;;;;;4985067;28;19929;-75
2022/03/22 11:03:50;;;;;;;;;;;5.10;89.40;;;;;;4987449;28;20531;-74
2022/03/22 11:06:18;;;;;;;;;;;5.10;89.30;;;;;;5008108;28;19930;-75
2022/03/22 11:08:46;;;;;;;;;;;5.10;88.90;;;;;;5000916;28;19926;-75
2022/03/22 11:11:13;;;;;;;;;;;5.10;89.00;;;;;;5013879;28;20403;-75
2022/03/22 11:13:40;;;;;;;;;;;5.10;89.30;;;;;;5004882;28;20016;-75
2022/03/22 11:16:08;;;;;;;;;;;5.20;89.20;;;;;;5005704;28;19965;-75
2022/03/22 11:18:36;;;;;;;;;;;5.20;89.60;;;;;;5014460;28;20334;-75
2022/03/22 11:21:04;;;;;;;;;;;5.30;89.50;;;;;;4991264;28;19926;-75
2022/03/22 11:23:32;;;;;;;;;;;5.30;89.50;;;;;;5010046;28;19932;-75
2022/03/22 11:26:09;;;;;;;;;;;5.30;89.60;;;;;;5001505;28;19925;-75
2022/03/22 11:28:36;;;;;;;;;;;5.30;89.60;;;;;;5006203;28;19929;-75
2022/03/22 11:31:04;;;;;;;;;;;5.40;89.70;;;;;;5009449;28;19965;-75
2022/03/22 11:36:17;;;;;;;;;;;5.50;90.00;;;;;;5007926;28;19922;-75
2022/03/22 11:38:45;;;;;;;;;;;5.50;90.00;;;;;;4996795;28;20308;-74
2022/03/22 11:44:10;;;;;;;;;;;5.60;90.10;;;;;;5011782;28;20022;-75
2022/03/22 11:46:36;;;;;;;;;;;5.60;90.00;;;;;;4989576;28;20060;-76
2022/03/22 11:49:17;;;;;;;;;;;5.60;90.00;;;;;;5009927;28;19933;-76
2022/03/22 11:51:51;;;;;;;;;;;5.60;90.00;;;;;;5007902;28;19979;-76
2022/03/22 11:54:19;;;;;;;;;;;5.70;90.10;;;;;;4982167;28;20391;-76
2022/03/22 11:56:48;;;;;;;;;;;5.70;90.10;;;;;;4986039;28;19925;-76
2022/03/22 11:59:16;;;;;;;;;;;5.80;90.20;;;;;;5009002;28;20011;-75
2022/03/22 12:01:43;;;;;;;;;;;5.80;90.20;;;;;;4990239;28;19987;-76
2022/03/22 12:04:16;;;;;;;;;;;5.90;90.30;;;;;;5014175;28;20399;-76
2022/03/22 12:06:43;;;;;;;;;;;5.90;90.40;;;;;;4987935;28;19930;-76
2022/03/22 12:09:10;;;;;;;;;;;6.00;90.40;;;;;;4985676;28;19933;-76
2022/03/22 12:11:37;;;;;;;;;;;6.00;90.40;;;;;;5009752;28;19933;-76
2022/03/22 12:14:05;;;;;;;;;;;6.00;90.50;;;;;;5006490;28;19926;-76
2022/03/22 12:16:32;;;;;;;;;;;6.10;90.50;;;;;;5011331;28;19929;-76
2022/03/22 12:19:00;;;;;;;;;;;6.10;90.50;;;;;;5016034;28;19929;-76
2022/03/22 12:21:27;;;;;;;;;;;6.20;90.70;;;;;;5014847;28;19934;-77
2022/03/22 12:23:54;;;;;;;;;;;6.20;90.60;;;;;;5009285;28;19925;-76
2022/03/22 12:26:26;;;;;;;;;;;6.30;90.80;;;;;;5004288;28;19925;-76
2022/03/22 12:28:54;;;;;;;;;;;6.30;90.80;;;;;;5009799;28;19925;-76
2022/03/22 12:31:23;;;;;;;;;;;6.30;90.70;;;;;;5012804;28;20028;-76
2022/03/22 12:33:51;;;;;;;;;;;6.40;90.90;;;;;;5009616;28;19940;-76
2022/03/22 12:36:20;;;;;;;;;;;6.50;90.90;;;;;;4998777;28;19929;-77
2022/03/22 12:38:46;;;;;;;;;;;6.50;90.80;;;;;;5006633;28;20044;-77
2022/03/22 12:41:13;;;;;;;;;;;6.60;90.90;;;;;;5007412;28;19939;-77
2022/03/22 12:43:45;;;;;;;;;;;6.60;90.90;;;;;;5013663;28;19979;-77
2022/03/22 12:46:12;;;;;;;;;;;6.70;90.80;;;;;;5008709;28;19933;-76
2022/03/22 12:48:41;;;;;;;;;;;6.70;90.90;;;;;;5014593;28;19933;-77
2022/03/22 12:51:09;;;;;;;;;;;6.70;91.00;;;;;;5008853;28;20025;-76
2022/03/22 12:53:37;;;;;;;;;;;6.80;91.00;;;;;;5014131;28;19971;-76
2022/03/22 12:56:13;;;;;;;;;;;6.90;91.00;;;;;;5008637;28;20388;-76
2022/03/22 12:58:40;;;;;;;;;;;6.90;91.00;;;;;;5015530;28;19933;-76
2022/03/22 13:01:07;;;;;;;;;;;6.90;91.00;;;;;;5004364;28;19934;-77
2022/03/22 13:03:34;;;;;;;;;;;7.00;91.00;;;;;;5006330;28;19932;-77
2022/03/22 13:06:04;;;;;;;;;;;7.10;91.00;;;;;;5007662;28;20425;-77
2022/03/22 13:11:26;;;;;;;;;;;7.10;90.90;;;;;;4996329;28;19925;-77
2022/03/22 13:11:26;;;;;;;;;;;7.10;91.00;;;;;;5007306;28;19969;-77
2022/03/22 13:16:39;;;;;;;;;;;7.20;91.10;;;;;;5010839;28;19925;-77
2022/03/22 13:19:06;;;;;;;;;;;7.30;91.20;;;;;;5007726;28;19925;-77
2022/03/22 13:21:35;;;;;;;;;;;7.40;91.20;;;;;;5013012;28;19948;-77
2022/03/22 13:24:03;;;;;;;;;;;7.40;91.10;;;;;;5008224;28;19929;-77
2022/03/22 13:26:32;;;;;;;;;;;7.50;91.10;;;;;;4990152;28;19940;-77
2022/03/22 13:28:58;;;;;;;;;;;7.50;91.20;;;;;;5010101;28;19972;-77
2022/03/22 13:31:26;;;;;;;;;;;7.60;91.30;;;;;;5008076;28;20018;-77
2022/03/22 13:33:56;;;;;;;;;;;7.70;91.20;;;;;;5009747;28;20323;-77
2022/03/22 13:36:23;;;;;;;;;;;7.70;91.10;;;;;;5092915;22;21642;31
2022/03/22 13:38:52;;;;;;;;;;;7.80;91.30;;;;;;5037431;23;20389;-76
2022/03/22 13:41:25;;;;;;;;;;;7.90;91.40;;;;;;4952795;23;19934;-76
2022/03/22 13:43:52;;;;;;;;;;;7.90;91.40;;;;;;4980122;28;19973;-76
2022/03/22 13:46:19;;;;;;;;;;;8.00;91.40;;;;;;4952992;28;20033;-76
2022/03/22 13:48:47;;;;;;;;;;;8.10;91.30;;;;;;4946426;28;19926;-77
2022/03/22 13:51:18;;;;;;;;;;;8.20;91.80;;;;;;4943430;28;20385;-76
2022/03/22 13:53:46;;;;;;;;;;;8.50;89.70;;;;;;4954170;28;19985;-77
2022/03/22 13:56:15;;;;;;;;;;;8.50;90.50;;;;;;4946903;28;19935;-76
2022/03/22 13:58:43;;;;;;;;;;;8.50;90.60;;;;;;4953734;28;19930;-76
2022/03/22 14:01:13;;;;;;;;;;;8.60;90.80;;;;;;4951571;28;20404;-77
2022/03/22 14:03:40;;;;;;;;;;;8.60;90.60;;;;;;4954663;28;19930;-77
2022/03/22 14:06:07;;;;;;;;;;;8.60;90.50;;;;;;4949813;28;20297;-78
2022/03/22 14:08:36;;;;;;;;;;;8.70;90.80;;;;;;4956544;28;19984;-77
2022/03/22 14:11:03;;;;;;;;;;;8.70;90.50;;;;;;5028406;23;19937;-76
2022/03/22 14:13:32;;;;;;;;;;;8.80;90.50;;;;;;4964461;28;19940;-76
2022/03/22 14:15:59;;;;;;;;;;;8.90;90.50;;;;;;4966227;28;20028;-76
2022/03/22 14:18:26;;;;;;;;;;;9.00;90.40;;;;;;4944190;28;19926;-76
2022/03/22 14:20:54;;;;;;;;;;;9.00;90.40;;;;;;4947676;28;20471;-76
2022/03/22 14:23:21;;;;;;;;;;;9.10;90.30;;;;;;4949005;28;19957;-76
2022/03/22 14:25:48;;;;;;;;;;;9.10;90.20;;;;;;4947474;28;20653;-76
2022/03/22 14:28:15;;;;;;;;;;;9.20;89.70;;;;;;4947565;28;20365;-76
2022/03/22 14:30:43;;;;;;;;;;;9.30;90.00;;;;;;4964109;28;19926;-77
2022/03/22 14:33:11;;;;;;;;;;;9.30;89.90;;;;;;4960341;28;19930;-77
2022/03/22 14:35:49;;;;;;;;;;;9.40;90.00;;;;;;5060661;22;20026;-76
2022/03/22 14:38:16;;;;;;;;;;;9.50;89.80;;;;;;5009808;28;19937;-76
2022/03/22 14:40:44;;;;;;;;;;;9.50;89.70;;;;;;5005340;28;19929;-76
2022/03/22 14:43:12;;;;;;;;;;;9.60;89.60;;;;;;4990948;28;19925;-76
2022/03/22 14:45:39;;;;;;;;;;;9.70;90.20;;;;;;5007349;28;20342;-77
2022/03/22 14:48:08;;;;;;;;;;;9.80;89.70;;;;;;4993680;28;19934;-77
2022/03/22 14:50:36;;;;;;;;;;;9.90;90.00;;;;;;5005395;28;20003;-76
2022/03/22 14:55:49;;;;;;;;;;;10.00;88.70;;;;;;5008238;28;19928;-77
2022/03/22 15:01:00;;;;;;;;;;;10.10;88.30;;;;;;4992730;28;19925;-77
2022/03/22 15:03:28;;;;;;;;;;;10.10;88.70;;;;;;5006087;28;19976;-77
2022/03/22 15:05:59;;;;;;;;;;;10.10;88.10;;;;;;5005210;28;20059;-77
2022/03/22 15:08:27;;;;;;;;;;;10.20;87.90;;;;;;5005225;28;19933;-77
2022/03/22 15:10:55;;;;;;;;;;;10.20;88.20;;;;;;5006313;28;19926;-77
2022/03/22 15:13:22;;;;;;;;;;;10.30;88.20;;;;;;4981829;28;20024;-76
2022/03/22 15:15:49;;;;;;;;;;;10.40;87.80;;;;;;4987869;28;19955;-77
2022/03/22 15:18:16;;;;;;;;;;;10.40;87.70;;;;;;5002224;28;19939;-78